Time;durP1;ratioP1;P1;durP2;ratioP2;P2;SDS_P1;SDS_P2;PMS_P1;PMS_P2;Temp;Humidity;BMP_temperature;BMP_pressure;BME280_temperature;BME280_humidity;BME280_pressure;Samples;Min_cycle;Max_cycle;Signal;HPM_P1;HPM_P2
2023/06/03 00:02:01;;;;;;;21.90;4.07;;;15.30;94.00;;;;;;5018324;28;20022;-85
2023/06/03 00:04:33;;;;;;;9.63;3.38;;;15.30;94.20;;;;;;5017658;28;20335;-85
2023/06/03 00:06:59;;;;;;;9.80;4.15;;;15.30;94.20;;;;;;5024757;28;20025;-84
2023/06/03 00:09:25;;;;;;;16.48;4.15;;;15.30;94.30;;;;;;5019152;28;20029;-86
2023/06/03 00:11:51;;;;;;;9.65;3.58;;;15.30;94.30;;;;;;5010764;28;20026;-84
2023/06/03 00:14:18;;;;;;;8.55;4.13;;;15.30;94.80;;;;;;5013973;28;20519;-84
2023/06/03 00:16:45;;;;;;;8.10;3.80;;;15.30;94.40;;;;;;5021187;28;20743;-86
2023/06/03 00:19:14;;;;;;;12.60;4.22;;;15.30;94.50;;;;;;5010446;28;20525;-85
2023/06/03 00:21:49;;;;;;;10.40;3.70;;;15.30;94.40;;;;;;5017973;28;20432;-91
2023/06/03 00:24:15;;;;;;;11.15;3.83;;;15.30;94.70;;;;;;5014989;28;20092;-89
2023/06/03 00:26:41;;;;;;;12.18;3.60;;;15.20;94.70;;;;;;5020715;28;20480;-91
2023/06/03 00:29:07;;;;;;;10.07;4.18;;;15.20;94.80;;;;;;5017064;28;20331;-89
2023/06/03 00:31:32;;;;;;;12.00;4.03;;;15.20;95.10;;;;;;5010249;28;20045;-87
2023/06/03 00:33:58;;;;;;;7.93;3.70;;;15.10;95.20;;;;;;5014942;28;20593;-90
2023/06/03 00:36:24;;;;;;;15.70;4.28;;;15.00;95.10;;;;;;5021897;28;20392;-89
2023/06/03 00:38:50;;;;;;;13.98;4.20;;;15.10;95.40;;;;;;5021489;28;20182;-88
2023/06/03 00:41:16;;;;;;;12.05;4.07;;;15.00;95.40;;;;;;5016823;28;20017;-90
2023/06/03 00:43:42;;;;;;;15.55;3.95;;;14.90;95.60;;;;;;5012774;28;20029;-87
2023/06/03 00:46:10;;;;;;;11.43;4.05;;;14.90;95.70;;;;;;5022706;28;20060;-90
2023/06/03 00:48:37;;;;;;;9.88;4.00;;;14.90;95.70;;;;;;5014549;28;20036;-90
2023/06/03 00:51:03;;;;;;;10.55;4.35;;;14.80;96.00;;;;;;5012622;28;20021;-86
2023/06/03 00:53:29;;;;;;;9.93;3.75;;;14.80;96.20;;;;;;5026365;28;20176;-88
2023/06/03 00:55:55;;;;;;;14.30;4.70;;;14.80;96.50;;;;;;5031690;28;20045;-85
2023/06/03 00:58:21;;;;;;;19.63;4.68;;;14.80;96.60;;;;;;5029721;28;21105;-90
2023/06/03 01:00:47;;;;;;;8.30;4.30;;;14.70;96.60;;;;;;5016315;28;20128;-90
2023/06/03 01:03:14;;;;;;;17.85;4.65;;;14.80;96.60;;;;;;5012559;28;20025;-89
2023/06/03 01:05:45;;;;;;;16.33;4.43;;;14.80;96.60;;;;;;5011967;28;20014;-89
2023/06/03 01:08:28;;;;;;;7.22;4.15;;;14.70;96.60;;;;;;5020697;28;20025;-90
2023/06/03 01:11:11;;;;;;;9.32;4.03;;;14.70;96.90;;;;;;5017815;28;20109;-83
2023/06/03 01:13:53;;;;;;;9.60;4.05;;;14.70;96.70;;;;;;5003299;28;20810;-83
2023/06/03 01:16:22;;;;;;;12.40;4.15;;;14.70;96.90;;;;;;5014044;28;20260;-82
2023/06/03 01:18:49;;;;;;;11.38;4.22;;;14.70;96.80;;;;;;5007353;28;20045;-83
2023/06/03 01:21:18;;;;;;;10.07;3.95;;;14.70;96.90;;;;;;5012377;28;20026;-83
2023/06/03 01:23:45;;;;;;;10.77;4.05;;;14.60;96.90;;;;;;5008527;28;20101;-83
2023/06/03 01:26:16;;;;;;;5.20;3.97;;;14.60;96.90;;;;;;5014018;28;20372;-83
2023/06/03 01:28:42;;;;;;;13.43;3.72;;;14.60;97.00;;;;;;5007203;28;20100;-82
2023/06/03 01:31:08;;;;;;;8.57;3.33;;;14.60;97.00;;;;;;5012046;28;20037;-82
2023/06/03 01:33:35;;;;;;;7.32;3.63;;;14.60;96.90;;;;;;5016794;28;20044;-82
2023/06/03 01:36:03;;;;;;;11.02;3.45;;;14.50;96.80;;;;;;5009499;28;20105;-82
2023/06/03 01:38:30;;;;;;;12.57;3.70;;;14.50;96.70;;;;;;5018212;28;20132;-82
2023/06/03 01:40:56;;;;;;;10.27;3.08;;;14.50;96.70;;;;;;5020111;28;20056;-82
2023/06/03 01:43:21;;;;;;;12.25;3.85;;;14.50;96.60;;;;;;5009898;28;20022;-82
2023/06/03 01:45:47;;;;;;;10.23;3.80;;;14.50;96.50;;;;;;5008462;28;20100;-82
2023/06/03 01:48:14;;;;;;;6.88;3.25;;;14.40;96.50;;;;;;5009264;28;20022;-82
2023/06/03 01:50:43;;;;;;;9.23;3.60;;;14.40;96.50;;;;;;5003832;28;20097;-82
2023/06/03 01:53:09;;;;;;;6.88;2.97;;;14.40;96.50;;;;;;5009745;28;20059;-82
2023/06/03 01:55:35;;;;;;;8.98;3.40;;;14.40;96.40;;;;;;5018886;28;20392;-83
2023/06/03 01:58:01;;;;;;;6.15;3.38;;;14.40;96.30;;;;;;5010903;28;20059;-83
2023/06/03 02:00:27;;;;;;;5.22;2.88;;;14.40;96.20;;;;;;5015886;28;20044;-82
2023/06/03 02:02:53;;;;;;;9.70;3.10;;;14.40;95.90;;;;;;5002286;28;20486;-82
2023/06/03 02:05:18;;;;;;;6.72;3.40;;;14.40;95.80;;;;;;5008179;28;20029;-82
2023/06/03 02:07:44;;;;;;;8.27;3.45;;;14.40;95.70;;;;;;5009820;28;20447;-82
2023/06/03 02:10:10;;;;;;;4.05;2.70;;;14.40;95.30;;;;;;5009308;28;20037;-82
2023/06/03 02:12:38;;;;;;;6.22;2.80;;;14.40;95.30;;;;;;5014139;28;20014;-82
2023/06/03 02:15:04;;;;;;;4.05;2.42;;;14.40;95.20;;;;;;5006038;28;20037;-83
2023/06/03 02:17:29;;;;;;;5.30;2.70;;;14.30;95.10;;;;;;5005853;28;20051;-82
2023/06/03 02:19:56;;;;;;;12.77;2.90;;;14.30;95.10;;;;;;5016654;28;20588;-81
2023/06/03 02:22:22;;;;;;;6.10;2.63;;;14.30;94.90;;;;;;5013315;28;20469;-82
2023/06/03 02:24:49;;;;;;;7.05;2.58;;;14.30;94.70;;;;;;5010150;28;20018;-86
2023/06/03 02:27:15;;;;;;;6.88;2.42;;;14.20;94.60;;;;;;5013135;28;20026;-92
2023/06/03 02:29:42;;;;;;;7.95;2.78;;;14.20;94.50;;;;;;5017251;28;20112;-86
2023/06/03 02:32:08;;;;;;;7.82;2.90;;;14.20;94.50;;;;;;5009753;28;20021;-90
2023/06/03 02:34:34;;;;;;;5.07;2.38;;;14.20;94.50;;;;;;5011189;28;20225;-90
2023/06/03 02:36:59;;;;;;;3.13;2.40;;;14.10;94.40;;;;;;5013171;28;20018;-91
2023/06/03 02:39:25;;;;;;;7.00;2.80;;;14.10;94.30;;;;;;5016993;28;20201;-90
2023/06/03 02:41:51;;;;;;;6.50;2.88;;;14.10;94.20;;;;;;5017694;28;20033;-86
2023/06/03 02:44:17;;;;;;;7.25;2.80;;;14.00;94.30;;;;;;5037293;28;20022;-88
2023/06/03 02:46:45;;;;;;;5.20;2.40;;;14.00;94.30;;;;;;5037804;28;20006;-87
2023/06/03 02:49:13;;;;;;;8.02;2.63;;;14.00;94.20;;;;;;5019238;28;20426;-90
2023/06/03 02:51:41;;;;;;;10.90;2.38;;;14.00;94.20;;;;;;5015329;28;20121;-90
2023/06/03 02:54:07;;;;;;;6.15;2.42;;;13.90;94.10;;;;;;5020329;28;20087;-90
2023/06/03 02:56:34;;;;;;;5.45;2.75;;;13.90;94.10;;;;;;5027986;28;20048;-87
2023/06/03 02:58:59;;;;;;;5.28;2.10;;;13.90;94.10;;;;;;5030286;28;20044;-82
2023/06/03 03:01:27;;;;;;;4.57;2.05;;;13.90;94.10;;;;;;5017974;28;20026;-91
2023/06/03 03:03:52;;;;;;;5.88;2.50;;;13.80;94.20;;;;;;5017057;28;20317;-87
2023/06/03 03:06:21;;;;;;;6.05;2.50;;;13.80;94.20;;;;;;5015881;28;20044;-91
2023/06/03 03:08:47;;;;;;;13.95;2.38;;;13.70;94.20;;;;;;5010535;28;20029;-91
2023/06/03 03:11:14;;;;;;;8.23;2.45;;;13.70;94.30;;;;;;5020444;28;20667;-86
2023/06/03 03:13:41;;;;;;;4.78;2.40;;;13.60;94.30;;;;;;5013398;28;20139;-92
2023/06/03 03:16:07;;;;;;;6.82;2.30;;;13.60;94.30;;;;;;5012436;28;20018;-90
2023/06/03 03:18:32;;;;;;;8.88;2.65;;;13.60;94.20;;;;;;5013846;28;20022;-88
2023/06/03 03:20:58;;;;;;;4.47;2.10;;;13.50;94.10;;;;;;5017811;28;20024;-89
2023/06/03 03:23:25;;;;;;;8.07;2.55;;;13.50;94.00;;;;;;5014809;28;20445;-90
2023/06/03 03:25:50;;;;;;;7.20;2.20;;;13.50;94.00;;;;;;5011514;28;20033;-91
2023/06/03 03:28:16;;;;;;;5.78;1.98;;;13.50;94.00;;;;;;5019278;28;20018;-90
2023/06/03 03:33:15;;;;;;;2.17;1.90;;;13.40;93.90;;;;;;5007114;28;20175;-90
2023/06/03 03:35:40;;;;;;;2.92;2.30;;;13.40;93.90;;;;;;5010717;28;20065;-81
2023/06/03 03:38:07;;;;;;;8.85;2.17;;;13.40;93.80;;;;;;5010872;28;20112;-81
2023/06/03 03:40:36;;;;;;;4.40;1.65;;;13.40;93.80;;;;;;5011051;28;20108;-81
2023/06/03 03:43:02;;;;;;;5.53;2.20;;;13.40;93.60;;;;;;5004854;28;20018;-81
2023/06/03 03:45:37;;;;;;;6.03;2.00;;;13.40;93.50;;;;;;5010100;28;20418;-83
2023/06/03 03:48:08;;;;;;;7.15;2.30;;;13.40;93.50;;;;;;5027951;28;20080;-81
2023/06/03 03:50:47;;;;;;;12.15;1.83;;;13.40;93.40;;;;;;5013841;28;20024;-85
2023/06/03 03:53:15;;;;;;;4.45;1.92;;;13.40;93.20;;;;;;5015373;28;20042;-88
2023/06/03 03:55:46;;;;;;;5.25;1.67;;;13.40;93.10;;;;;;5019110;28;20515;-87
2023/06/03 03:58:36;;;;;;;4.53;1.98;;;13.40;93.00;;;;;;5027625;28;20056;-86
2023/06/03 04:01:12;;;;;;;4.25;1.80;;;13.50;92.90;;;;;;5030988;28;20018;-87
2023/06/03 04:03:42;;;;;;;6.80;1.80;;;13.40;92.80;;;;;;5015623;28;20108;-86
2023/06/03 04:06:09;;;;;;;4.22;2.00;;;13.50;92.70;;;;;;5012294;28;20065;-87
2023/06/03 04:08:39;;;;;;;4.32;1.95;;;13.50;92.50;;;;;;5019140;28;20269;-87
2023/06/03 04:11:07;;;;;;;4.40;1.80;;;13.60;92.40;;;;;;5009560;28;20033;-81
2023/06/03 04:13:38;;;;;;;9.45;1.80;;;13.60;92.10;;;;;;5012758;28;20046;-82
2023/06/03 04:16:12;;;;;;;4.60;1.70;;;13.60;92.00;;;;;;5003455;28;20255;-80
2023/06/03 04:18:40;;;;;;;2.65;1.73;;;13.60;91.80;;;;;;5004034;28;20440;-81
2023/06/03 04:21:08;;;;;;;5.65;1.80;;;13.70;91.70;;;;;;5014283;28;20024;-86
2023/06/03 04:23:34;;;;;;;5.55;1.90;;;13.80;91.60;;;;;;5015491;28;20025;-88
2023/06/03 04:26:02;;;;;;;3.40;1.98;;;13.80;91.30;;;;;;5152934;22;20060;-80
2023/06/03 04:28:28;;;;;;;3.25;1.48;;;13.80;91.20;;;;;;5008345;28;20398;-80
2023/06/03 04:30:53;;;;;;;3.10;1.38;;;13.80;91.10;;;;;;5010324;28;20020;-81
2023/06/03 04:33:19;;;;;;;5.53;2.13;;;13.90;90.90;;;;;;5159752;22;20506;-89
2023/06/03 04:35:44;;;;;;;4.47;1.90;;;13.90;90.80;;;;;;5014477;28;20017;-90
2023/06/03 04:38:11;;;;;;;3.72;1.67;;;14.00;90.90;;;;;;5011502;28;20481;-87
2023/06/03 04:40:37;;;;;;;2.53;1.35;;;14.00;90.70;;;;;;5009219;28;20386;-90
2023/06/03 04:43:03;;;;;;;4.68;1.60;;;14.00;90.50;;;;;;5016197;28;20155;-89
2023/06/03 04:45:31;;;;;;;2.00;1.63;;;14.10;90.40;;;;;;5016269;28;20125;-89
2023/06/03 04:48:01;;;;;;;4.85;1.88;;;14.10;90.10;;;;;;5027778;28;20052;-87
2023/06/03 04:50:28;;;;;;;6.72;1.75;;;14.20;90.40;;;;;;5022089;28;20026;-88
2023/06/03 04:52:58;;;;;;;6.18;1.55;;;14.20;90.20;;;;;;5019274;28;20414;-88
2023/06/03 04:55:25;;;;;;;3.97;1.60;;;14.30;90.10;;;;;;5020408;28;20022;-87
2023/06/03 04:57:53;;;;;;;1.95;1.40;;;14.40;89.30;;;;;;5025679;28;20022;-87
2023/06/03 05:00:19;;;;;;;3.22;1.60;;;14.50;89.10;;;;;;5035213;28;20156;-85
2023/06/03 05:02:54;;;;;;;4.95;1.45;;;14.60;88.40;;;;;;5014105;28;20284;-88
2023/06/03 05:05:24;;;;;;;8.32;1.60;;;14.60;87.90;;;;;;5015945;28;20044;-87
2023/06/03 05:07:50;;;;;;;8.65;1.70;;;14.70;88.10;;;;;;5014789;28;20022;-88
2023/06/03 05:10:16;;;;;;;5.03;1.17;;;14.70;87.90;;;;;;5018700;28;20084;-88
2023/06/03 05:12:42;;;;;;;6.25;1.50;;;14.80;87.10;;;;;;5012249;28;20065;-85
2023/06/03 05:15:10;;;;;;;2.42;1.27;;;14.70;86.60;;;;;;5021025;28;20124;-89
2023/06/03 05:17:38;;;;;;;2.28;1.23;;;14.80;86.30;;;;;;5015083;28;20033;-86
2023/06/03 05:20:08;;;;;;;3.10;1.55;;;14.90;86.00;;;;;;5014616;28;20014;-86
2023/06/03 05:22:34;;;;;;;4.88;1.30;;;14.90;85.10;;;;;;5012624;28;20052;-88
2023/06/03 05:25:00;;;;;;;6.07;1.33;;;15.00;85.30;;;;;;5021444;28;20052;-87
2023/06/03 05:27:29;;;;;;;2.22;1.40;;;15.00;85.20;;;;;;5011089;28;20802;-87
2023/06/03 05:29:55;;;;;;;4.00;1.10;;;15.10;84.30;;;;;;5018547;28;20022;-88
2023/06/03 05:32:21;;;;;;;1.25;0.95;;;15.10;84.10;;;;;;5016120;28;20106;-84
2023/06/03 05:34:47;;;;;;;3.05;1.30;;;15.20;83.90;;;;;;5017262;28;20876;-88
2023/06/03 05:37:12;;;;;;;5.18;1.33;;;15.10;82.80;;;;;;5018500;28;20047;-88
2023/06/03 05:39:38;;;;;;;4.63;1.40;;;15.20;83.30;;;;;;5016203;28;20029;-87
2023/06/03 05:42:06;;;;;;;6.93;1.17;;;15.30;83.10;;;;;;5010518;28;20076;-88
2023/06/03 05:44:34;;;;;;;6.28;1.48;;;15.40;82.10;;;;;;5012946;28;21111;-88
2023/06/03 05:47:00;;;;;;;2.83;1.20;;;15.50;82.30;;;;;;5021262;28;20010;-88
2023/06/03 05:49:25;;;;;;;4.63;1.23;;;15.60;82.40;;;;;;5021054;28;20541;-84
2023/06/03 05:51:51;;;;;;;7.10;1.33;;;15.60;82.30;;;;;;5014581;28;20033;-88
2023/06/03 05:54:17;;;;;;;3.03;1.30;;;15.70;81.80;;;;;;5021470;28;20063;-85
2023/06/03 05:56:42;;;;;;;4.70;1.13;;;15.80;80.10;;;;;;5040306;28;20028;-85
2023/06/03 05:59:08;;;;;;;2.75;1.13;;;15.90;80.30;;;;;;5035897;28;20056;-87
2023/06/03 06:01:33;;;;;;;2.38;0.95;;;16.00;80.10;;;;;;5020426;28;20095;-87
2023/06/03 06:03:59;;;;;;;2.50;1.00;;;16.00;79.80;;;;;;5020388;28;20018;-85
2023/06/03 06:06:27;;;;;;;8.77;1.17;;;16.10;79.20;;;;;;5033407;28;20029;-86
2023/06/03 06:08:53;;;;;;;1.90;1.27;;;16.10;79.00;;;;;;5021598;28;20026;-85
2023/06/03 06:11:18;;;;;;;6.15;1.10;;;16.10;78.90;;;;;;5031151;28;20040;-86
2023/06/03 06:13:44;;;;;;;3.22;0.90;;;16.20;78.50;;;;;;5023671;28;20076;-88
2023/06/03 06:16:10;;;;;;;2.08;1.08;;;16.30;79.00;;;;;;5017673;28;20021;-88
2023/06/03 06:18:36;;;;;;;2.28;0.85;;;16.40;77.90;;;;;;5024126;28;20311;-89
2023/06/03 06:21:01;;;;;;;4.65;0.95;;;16.50;77.00;;;;;;5022811;28;20036;-90
2023/06/03 06:23:27;;;;;;;1.20;0.98;;;16.50;76.80;;;;;;5020674;28;20033;-89
2023/06/03 06:25:55;;;;;;;1.55;0.80;;;16.50;76.40;;;;;;5019945;28;20036;-88
2023/06/03 06:28:26;;;;;;;5.43;1.10;;;16.60;75.90;;;;;;5018977;28;20047;-88
2023/06/03 06:30:54;;;;;;;3.65;0.80;;;16.60;75.20;;;;;;5030647;28;20488;-88
2023/06/03 06:33:19;;;;;;;3.55;1.00;;;16.70;75.20;;;;;;5019296;28;20045;-89
2023/06/03 06:35:45;;;;;;;3.22;1.00;;;16.70;75.00;;;;;;5019694;28;20025;-89
2023/06/03 06:38:14;;;;;;;4.53;0.93;;;16.80;75.60;;;;;;5022471;28;20034;-89
2023/06/03 06:40:40;;;;;;;7.72;1.05;;;16.90;75.50;;;;;;5020918;28;20085;-90
2023/06/03 06:43:12;;;;;;;1.70;0.75;;;16.90;74.50;;;;;;5022582;28;20017;-91
2023/06/03 06:45:37;;;;;;;1.55;1.00;;;17.00;74.00;;;;;;5026055;28;20147;-88
2023/06/03 06:48:11;;;;;;;3.55;0.98;;;17.00;72.90;;;;;;5019828;28;20022;-89
2023/06/03 06:50:53;;;;;;;1.70;0.90;;;17.10;72.00;;;;;;5018173;28;20405;-91
2023/06/03 06:53:20;;;;;;;1.10;0.77;;;17.20;72.60;;;;;;5020946;28;20010;-88
2023/06/03 06:56:02;;;;;;;1.33;0.77;;;17.30;71.90;;;;;;5024986;28;20052;-89
2023/06/03 06:58:41;;;;;;;2.28;0.70;;;17.40;71.90;;;;;;5030365;28;20072;-92
2023/06/03 07:01:08;;;;;;;4.85;1.25;;;17.50;71.30;;;;;;5021379;28;20063;-91
2023/06/03 07:03:36;;;;;;;7.20;0.90;;;17.50;71.00;;;;;;5025030;28;20029;-91
2023/06/03 07:06:02;;;;;;;3.65;0.80;;;17.60;69.80;;;;;;5020029;28;20458;-87
2023/06/03 07:08:27;;;;;;;1.77;0.80;;;17.60;69.60;;;;;;5022080;28;20030;-86
2023/06/03 07:11:02;;;;;;;2.38;0.90;;;17.60;69.20;;;;;;5014984;28;20033;-88
2023/06/03 07:13:28;;;;;;;2.28;0.90;;;17.70;68.90;;;;;;5018425;28;20041;-88
2023/06/03 07:15:55;;;;;;;6.60;1.00;;;17.80;68.80;;;;;;5016764;28;20485;-86
2023/06/03 07:18:25;;;;;;;3.05;1.15;;;18.00;68.70;;;;;;5021488;28;20028;-89
2023/06/03 07:20:51;;;;;;;3.08;0.90;;;17.90;66.80;;;;;;5017932;28;20034;-88
2023/06/03 07:23:22;;;;;;;1.73;0.60;;;18.00;66.90;;;;;;5022671;28;20023;-87
2023/06/03 07:25:49;;;;;;;1.65;0.90;;;18.10;67.20;;;;;;5020741;28;20029;-85
2023/06/03 07:28:37;;;;;;;2.60;1.05;;;18.20;66.50;;;;;;5021540;28;20131;-91
2023/06/03 07:31:08;;;;;;;1.05;0.90;;;18.30;66.00;;;;;;5019384;28;20550;-89
2023/06/03 07:33:47;;;;;;;4.25;1.10;;;18.40;65.90;;;;;;5017947;28;20144;-90
2023/06/03 07:36:13;;;;;;;1.05;0.70;;;18.60;65.00;;;;;;5020222;28;20125;-88
2023/06/03 07:38:38;;;;;;;4.47;0.80;;;18.70;63.20;;;;;;5020000;28;20068;-87
2023/06/03 07:41:09;;;;;;;9.18;1.20;;;18.80;62.80;;;;;;5019838;28;20048;-90
2023/06/03 07:43:38;;;;;;;1.52;0.65;;;19.00;62.30;;;;;;5017661;28;20021;-87
2023/06/03 07:46:08;;;;;;;4.60;1.13;;;19.20;61.90;;;;;;5018843;28;20021;-87
2023/06/03 07:48:36;;;;;;;3.55;0.98;;;19.30;61.80;;;;;;5017731;28;20117;-90
2023/06/03 07:51:03;;;;;;;9.02;0.90;;;19.40;62.70;;;;;;5016174;28;20034;-89
2023/06/03 07:53:30;;;;;;;1.80;0.68;;;19.60;61.20;;;;;;5021118;28;20026;-89
2023/06/03 07:55:59;;;;;;;2.88;1.00;;;19.80;60.10;;;;;;5021302;28;20029;-86
2023/06/03 07:58:25;;;;;;;4.05;1.33;;;20.00;60.60;;;;;;5023659;28;20481;-89
2023/06/03 08:00:54;;;;;;;1.92;0.90;;;20.30;60.20;;;;;;5021357;28;20105;-88
2023/06/03 08:03:25;;;;;;;4.78;0.80;;;20.50;59.70;;;;;;5023318;28;20502;-91
2023/06/03 08:05:51;;;;;;;2.97;0.80;;;20.60;59.70;;;;;;5027261;28;20022;-81
2023/06/03 08:08:23;;;;;;;1.85;1.10;;;20.80;59.00;;;;;;5017466;28;20532;-81
2023/06/03 08:10:49;;;;;;;4.85;0.82;;;20.90;57.40;;;;;;5026540;28;20021;-80
2023/06/03 08:13:17;;;;;;;5.18;0.73;;;20.90;55.40;;;;;;5019093;28;20128;-80
2023/06/03 08:15:47;;;;;;;3.13;0.82;;;21.00;55.10;;;;;;5030030;28;20037;-81
2023/06/03 08:18:37;;;;;;;0.82;0.70;;;21.10;54.20;;;;;;5040435;28;20034;-84
2023/06/03 08:21:03;;;;;;;1.83;0.80;;;21.30;54.10;;;;;;5038215;28;20210;-88
2023/06/03 08:23:28;;;;;;;0.93;0.73;;;21.70;53.70;;;;;;5019560;28;20036;-90
2023/06/03 08:25:59;;;;;;;1.23;0.90;;;22.10;53.10;;;;;;5025746;28;20017;-88
2023/06/03 08:28:25;;;;;;;3.03;0.57;;;22.30;53.70;;;;;;5020740;28;20366;-88
2023/06/03 08:30:51;;;;;;;1.23;1.10;;;22.80;52.90;;;;;;5025064;28;20032;-83
2023/06/03 08:33:19;;;;;;;4.47;1.00;;;23.10;50.50;;;;;;5019293;28;20030;-86
2023/06/03 08:35:45;;;;;;;0.93;0.70;;;23.20;49.80;;;;;;5021304;28;20655;-86
2023/06/03 08:38:11;;;;;;;1.65;0.90;;;23.00;49.50;;;;;;5022732;28;20173;-87
2023/06/03 08:40:46;;;;;;;1.48;0.85;;;23.20;49.70;;;;;;5022639;28;20530;-88
2023/06/03 08:43:13;;;;;;;2.97;1.20;;;23.50;49.70;;;;;;5018911;28;20511;-86
2023/06/03 08:46:19;;;;;;;3.25;0.88;;;23.80;49.20;;;;;;5020415;28;20029;-87
2023/06/03 08:49:00;;;;;;;2.38;0.80;;;24.00;48.70;;;;;;5019855;28;20025;-85
2023/06/03 08:51:26;;;;;;;27.63;10.82;;;24.30;47.70;;;;;;5013594;28;20473;-83
2023/06/03 08:53:52;;;;;;;8.55;4.03;;;24.30;46.70;;;;;;5020701;28;20109;-80
2023/06/03 08:56:22;;;;;;;44.08;16.45;;;24.20;46.20;;;;;;5016624;28;20041;-86
2023/06/03 08:58:52;;;;;;;84.43;36.67;;;24.30;47.10;;;;;;5020454;28;20446;-92
2023/06/03 09:01:20;;;;;;;7.55;1.20;;;24.40;47.40;;;;;;5020006;28;20485;-81
2023/06/03 09:03:47;;;;;;;3.38;1.10;;;24.60;47.20;;;;;;5012773;28;20013;-80
2023/06/03 09:06:16;;;;;;;2.80;1.08;;;24.60;46.20;;;;;;5013486;28;20120;-79
2023/06/03 09:08:42;;;;;;;6.20;1.38;;;24.50;46.90;;;;;;5018662;28;20033;-79
2023/06/03 09:11:11;;;;;;;3.22;1.40;;;24.60;45.70;;;;;;5013203;28;20109;-82
2023/06/03 09:13:38;;;;;;;4.78;1.67;;;24.60;46.30;;;;;;5016145;28;20025;-82
2023/06/03 09:16:04;;;;;;;1.83;1.48;;;24.60;46.60;;;;;;5015615;28;20292;-84
2023/06/03 09:18:30;;;;;;;2.78;0.90;;;24.70;46.70;;;;;;5013969;28;20014;-79
2023/06/03 09:20:56;;;;;;;2.63;1.10;;;24.80;47.10;;;;;;5010337;28;20026;-83
2023/06/03 09:23:22;;;;;;;4.57;1.10;;;24.90;45.80;;;;;;5015137;28;20033;-82
2023/06/03 09:25:48;;;;;;;3.42;1.52;;;24.80;46.70;;;;;;5012473;28;20440;-80
2023/06/03 09:28:13;;;;;;;6.22;1.52;;;24.60;46.20;;;;;;5013478;28;20057;-80
2023/06/03 09:30:39;;;;;;;2.60;1.30;;;24.70;46.40;;;;;;5018305;28;20097;-80
2023/06/03 09:33:05;;;;;;;7.68;1.45;;;24.80;47.20;;;;;;5010047;28;20030;-79
2023/06/03 09:35:30;;;;;;;7.32;1.30;;;25.10;46.50;;;;;;5015084;28;20029;-81
2023/06/03 09:38:01;;;;;;;4.85;1.35;;;25.30;45.30;;;;;;5021995;28;20239;-81
2023/06/03 09:40:29;;;;;;;7.55;1.50;;;25.20;45.10;;;;;;5014527;28;20598;-83
2023/06/03 09:42:55;;;;;;;7.00;1.35;;;24.90;44.90;;;;;;5012010;28;20076;-82
2023/06/03 09:45:31;;;;;;;2.63;1.48;;;25.20;45.70;;;;;;5015713;28;20034;-85
2023/06/03 09:47:58;;;;;;;4.60;1.50;;;25.60;45.20;;;;;;5017052;28;20021;-80
2023/06/03 09:50:28;;;;;;;3.92;1.23;;;25.60;44.40;;;;;;5018571;28;20029;-81
2023/06/03 09:52:54;;;;;;;64.13;28.75;;;25.80;44.30;;;;;;5012787;28;20036;-82
2023/06/03 09:55:22;;;;;;;6.60;2.38;;;25.80;44.20;;;;;;5015138;28;20342;-83
2023/06/03 09:58:09;;;;;;;19.67;8.05;;;26.00;44.30;;;;;;5014188;28;20374;-85
2023/06/03 10:00:50;;;;;;;2.28;1.02;;;25.90;44.00;;;;;;5015637;28;20339;-81
2023/06/03 10:03:18;;;;;;;2.70;1.33;;;26.00;44.70;;;;;;5018150;28;20041;-83
2023/06/03 10:05:44;;;;;;;3.20;1.42;;;25.90;45.20;;;;;;5016525;28;20126;-82
2023/06/03 10:08:10;;;;;;;2.55;1.15;;;25.80;44.20;;;;;;5013911;28;20594;-82
2023/06/03 10:10:56;;;;;;;4.78;1.90;;;25.90;44.40;;;;;;5016254;28;20090;-82
2023/06/03 10:13:23;;;;;;;8.85;1.52;;;26.00;44.60;;;;;;5015830;28;20121;-83
2023/06/03 10:15:52;;;;;;;5.50;1.65;;;26.40;43.90;;;;;;5013190;28;20362;-82
2023/06/03 10:18:33;;;;;;;3.15;1.20;;;26.70;43.90;;;;;;5030949;28;20017;-81
2023/06/03 10:21:04;;;;;;;3.28;1.38;;;27.00;43.90;;;;;;5018664;28;20034;-80
2023/06/03 10:23:31;;;;;;;3.83;1.35;;;27.40;43.00;;;;;;5012224;28;20025;-82
2023/06/03 10:25:59;;;;;;;5.72;1.95;;;27.40;42.50;;;;;;5010962;28;20120;-82
2023/06/03 10:28:25;;;;;;;51.35;17.48;;;27.70;42.30;;;;;;5014283;28;20596;-80
2023/06/03 10:30:52;;;;;;;1.98;1.10;;;27.80;42.70;;;;;;5015002;28;20077;-83
2023/06/03 10:33:19;;;;;;;5.55;1.60;;;28.00;42.10;;;;;;5011899;28;20049;-81
2023/06/03 10:35:47;;;;;;;2.20;1.40;;;28.40;41.40;;;;;;5012191;28;20033;-81
2023/06/03 10:38:14;;;;;;;3.53;1.50;;;28.50;41.30;;;;;;5012289;28;20026;-84
2023/06/03 10:40:40;;;;;;;3.33;1.35;;;28.40;41.20;;;;;;5011189;28;20389;-82
2023/06/03 10:43:09;;;;;;;3.55;1.40;;;28.10;40.30;;;;;;5016234;28;20025;-81
2023/06/03 10:45:34;;;;;;;1.38;1.20;;;28.20;41.10;;;;;;5007795;28;20033;-82
2023/06/03 10:48:07;;;;;;;2.78;1.42;;;28.40;41.60;;;;;;5011016;28;20018;-86
2023/06/03 10:50:51;;;;;;;5.57;1.33;;;28.30;40.50;;;;;;5013637;28;20123;-82
2023/06/03 10:53:35;;;;;;;3.20;1.30;;;28.40;41.50;;;;;;4999330;28;20044;-82
2023/06/03 10:56:21;;;;;;;4.53;1.33;;;28.70;41.10;;;;;;4997142;28;20022;-82
2023/06/03 10:58:57;;;;;;;1.98;1.35;;;29.00;41.10;;;;;;5015055;28;20481;-82
2023/06/03 11:01:43;;;;;;;4.53;1.50;;;29.30;40.20;;;;;;5001806;28;20325;-82
2023/06/03 11:04:09;;;;;;;2.08;1.88;;;29.00;40.30;;;;;;5002687;28;20305;-83
2023/06/03 11:06:34;;;;;;;7.55;1.40;;;28.60;40.50;;;;;;4999945;28;20057;-81
2023/06/03 11:09:05;;;;;;;5.25;1.70;;;28.20;40.50;;;;;;5001419;28;20432;-81
2023/06/03 11:11:55;;;;;;;1.75;1.60;;;28.20;40.80;;;;;;5003240;28;20097;-81
2023/06/03 11:14:24;;;;;;;266.98;101.78;;;28.30;40.10;;;;;;5002674;28;20038;-86
2023/06/03 11:16:58;;;;;;;248.88;127.40;;;28.10;41.50;;;;;;5001431;28;20026;-85
2023/06/03 11:19:31;;;;;;;4.80;1.60;;;27.90;40.80;;;;;;4999684;28;20036;-85
2023/06/03 11:21:58;;;;;;;7.45;1.60;;;27.70;40.20;;;;;;4999431;28;20018;-82
2023/06/03 11:24:39;;;;;;;4.45;1.58;;;27.80;41.40;;;;;;5010853;28;20025;-85
2023/06/03 11:27:12;;;;;;;2.85;1.50;;;28.20;40.40;;;;;;5012960;28;20414;-86
2023/06/03 11:29:55;;;;;;;2.85;1.30;;;28.00;39.70;;;;;;5019211;28;20391;-82
2023/06/03 11:32:24;;;;;;;4.50;1.33;;;27.90;40.80;;;;;;5001739;28;20086;-90
2023/06/03 11:34:59;;;;;;;2.55;1.42;;;27.70;39.90;;;;;;5004360;28;20084;-86
2023/06/03 11:37:49;;;;;;;1.45;1.35;;;27.60;40.00;;;;;;5006355;28;20049;-90
2023/06/03 11:40:17;;;;;;;1.50;1.40;;;27.80;40.40;;;;;;5008359;28;20859;-83
2023/06/03 11:42:49;;;;;;;1.75;1.30;;;27.80;39.00;;;;;;4998973;28;20042;-83
2023/06/03 11:45:29;;;;;;;8.73;3.95;;;27.70;39.70;;;;;;5003746;28;20034;-79
2023/06/03 11:48:05;;;;;;;116.97;54.65;;;27.70;39.00;;;;;;4997889;28;20026;-81
2023/06/03 11:50:50;;;;;;;4.15;1.38;;;27.80;39.50;;;;;;5004670;28;20819;-79
2023/06/03 11:53:36;;;;;;;4.00;1.40;;;27.80;40.10;;;;;;5002121;28;20035;-81
2023/06/03 11:56:05;;;;;;;1.73;0.80;;;27.60;39.40;;;;;;4998126;28;20021;-78
2023/06/03 11:58:31;;;;;;;4.60;1.23;;;27.60;40.00;;;;;;5016240;28;20030;-79
2023/06/03 12:01:05;;;;;;;4.25;1.42;;;27.90;39.80;;;;;;4999000;28;20026;-79
2023/06/03 12:03:31;;;;;;;2.03;1.05;;;27.90;39.10;;;;;;5001697;28;20030;-77
2023/06/03 12:05:57;;;;;;;2.25;1.33;;;28.10;39.80;;;;;;4996779;28;20041;-80
2023/06/03 12:08:22;;;;;;;1.45;1.20;;;28.10;39.00;;;;;;5002615;28;20080;-81
2023/06/03 12:10:48;;;;;;;4.60;1.02;;;28.10;39.40;;;;;;5001631;28;20038;-80
2023/06/03 12:13:14;;;;;;;144.25;62.80;;;28.20;39.30;;;;;;5007578;28;20113;-78
2023/06/03 12:15:51;;;;;;;68.88;30.45;;;28.30;39.10;;;;;;5003839;28;20258;-79
2023/06/03 12:18:17;;;;;;;1.58;1.15;;;28.20;39.30;;;;;;5000893;28;20034;-80
2023/06/03 12:20:42;;;;;;;7.40;1.27;;;28.30;38.60;;;;;;5000991;28;20018;-78
2023/06/03 12:23:09;;;;;;;4.05;1.45;;;28.20;38.30;;;;;;4997683;28;20100;-78
2023/06/03 12:25:36;;;;;;;1.23;0.90;;;28.40;39.20;;;;;;4999937;28;20022;-79
2023/06/03 12:28:25;;;;;;;2.72;1.13;;;28.10;39.20;;;;;;4994229;28;20386;-78
2023/06/03 12:30:50;;;;;;;2.47;1.17;;;28.30;38.30;;;;;;5004296;28;20265;-79
2023/06/03 12:33:17;;;;;;;2.33;1.02;;;28.30;37.80;;;;;;4995957;28;20034;-82
2023/06/03 12:35:56;;;;;;;1.25;1.15;;;28.00;38.00;;;;;;4997235;28;20034;-81
2023/06/03 12:38:21;;;;;;;2.67;1.15;;;28.00;38.60;;;;;;5016148;28;20030;-83
2023/06/03 12:40:47;;;;;;;4.07;1.40;;;28.10;37.10;;;;;;4999696;28;20704;-81
2023/06/03 12:43:22;;;;;;;2.17;1.40;;;28.20;37.40;;;;;;5000311;28;20104;-83
2023/06/03 12:45:48;;;;;;;3.45;0.90;;;28.30;37.50;;;;;;5013068;28;20033;-79
2023/06/03 12:48:32;;;;;;;1.42;1.10;;;28.30;37.60;;;;;;5000367;28;20120;-80
2023/06/03 12:50:59;;;;;;;2.28;1.08;;;28.30;37.30;;;;;;5000354;28;20052;-81
2023/06/03 12:53:25;;;;;;;45.53;16.65;;;28.30;37.50;;;;;;5001382;28;20034;-82
2023/06/03 12:55:51;;;;;;;2.13;1.15;;;28.50;37.70;;;;;;4998980;28;20064;-80
2023/06/03 12:58:16;;;;;;;2.40;1.45;;;28.20;37.10;;;;;;4999911;28;20386;-83